Station: STENHOUSE BAY

  Atmospheric Gas Attenuation - ITU Rec 676-11   --------------- db/100km ---------------
Date Time Temp RH % AH g/m3 Dew Point Wind Direction Speed kph Gust kph Barometer mB Rainfall Since 9am 24GHz 47GHz 76GHz 122GHz 134GHz 241GHz
27 14:10 13.8 66 7.86 7.5 26 30 1013.1 0 18.0 24.7 36.9 96.6 88.7 304.7
27 14:00 13.8 65 7.74 7.3 24 33 1024.7 0 17.7 24.9 36.9 96.5 88.1 302.2
27 13:50 13.7 64 7.58 7 24 28 1013.1 0 17.4 24.3 35.8 93.8 85.3 292.5
27 13:40 14.6 62 7.76 7.4 22 28 1013.1 0 17.8 24.3 36.1 94.6 86.6 297.2
27 13:30 13.9 63 7.55 7 24 32 1025.1 0 17.3 24.6 36.1 94.5 85.5 293.4
27 13:20 14.2 60 7.33 6.5 24 28 1013.1 0 16.9 23.8 34.6 90.7 81.6 279.7
27 13:10 14.5 59 7.34 6.6 24 28 1013.1 0 16.9 23.7 34.6 90.5 81.4 279.0
27 13:00 15 57 7.31 6.6 22 28 1025.4 0 16.8 24.0 34.7 90.8 81.4 278.9
27 12:50 14.4 59 7.29 6.5 24 26 1013.1 0 16.8 23.7 34.4 90.1 80.9 277.2
27 12:40 15.1 56 7.22 6.4 24 28 1013.1 0 16.6 23.4 33.8 88.6 79.3 271.8
27 12:30 14.8 57 7.22 6.4 22 28 1025.7 0 16.6 23.9 34.5 90.1 80.5 275.7
27 12:20 14.8 56 7.09 6.1 24 28 1013.1 0 16.3 23.3 33.5 87.6 78.0 267.2
27 12:10 14.9 57 7.26 6.4 24 26 1013.1 0 16.7 23.5 34.1 89.2 80.0 274.2
27 12:00 15.3 56 7.31 6.6 22 28 1026.1 0 16.8 23.9 34.6 90.5 81.1 278.0
27 11:50 15.2 55 7.14 6.2 22 26 1013.1 0 16.4 23.2 33.5 87.7 78.2 268.0
27 11:40 15.1 56 7.22 6.4 20 22 1013.1 0 16.6 23.4 33.8 88.6 79.3 271.8
27 11:30 15.3 56 7.31 6.6 20 26 1026.4 0 16.8 23.9 34.6 90.5 81.1 278.0
27 11:20 15.1 56 7.22 6.4 20 24 1013.1 0 16.6 23.4 33.8 88.6 79.3 271.8
27 11:10 14.7 56 7.05 6 22 24 1013.1 0 16.2 23.2 33.4 87.3 77.6 265.8
27 11:00 15 54 6.92 5.8 20 24 1026.5 0 16.0 23.4 33.3 86.9 76.6 262.1
27 10:50 14.3 55 6.76 5.4 20 22 1013.1 0 15.6 22.9 32.5 84.9 74.4 254.6
27 10:40 14.6 54 6.76 5.6 20 26 1013.1 0 15.6 22.8 32.3 84.5 74.2 253.6
27 10:30 14.6 55 6.88 5.7 19 22 1026.8 0 15.9 23.5 33.3 87.0 76.5 261.8
27 10:20 14.4 54 6.68 5.4 15 19 1013.1 0 15.5 22.7 32.1 84.0 73.4 250.8
27 10:10 14.4 54 6.68 5.4 15 19 1013.1 0 15.5 22.7 32.1 84.0 73.4 250.8
27 10:00 14.6 54 6.76 5.4 13 17 1027 0 15.6 23.3 32.9 85.8 75.1 256.6
27 09:50 13.7 54 6.39 4.5 13 17 1013.1 0 14.9 22.5 31.3 81.8 70.5 240.6
27 09:40 13.9 54 6.47 4.7 11 13 1013.1 0 15.0 22.6 31.5 82.4 71.3 243.4
27 09:30 14.3 52 6.39 4.6 11 17 1027.4 0 14.9 22.8 31.7 82.5 70.8 241.7
27 09:20 13.4 53 6.16 4 7 7 1013.1 0 14.4 22.2 30.6 79.9 67.9 231.7
27 09:10 14.2 54 6.59 5 11 13 1013.1 0 15.3 22.7 31.9 83.3 72.5 247.6
27 09:00 14 56 6.75 5.4 13 19 1027.3 0 15.6 23.5 33.1 86.4 75.5 258.2
27 08:50 13.6 53 6.24 4.4 15 17 1013.1 0 14.6 22.3 30.8 80.5 68.7 234.5
27 08:40 12.8 58 6.5 4.7 13 17 1013.1 0 15.2 22.9 32.1 83.9 72.6 248.1
27 08:30 12 59 6.29 4.2 9 11 1027.2 0 14.7 23.3 32.2 83.9 71.6 244.3
27 08:20 12.3 57 6.19 4.2 7 9 1013.1 0 14.5 22.5 31.1 81.3 69.3 236.2
27 08:10 12.3 55 5.97 3.5 9 11 1013.1 0 14.0 22.2 30.3 79.1 66.6 226.7
27 08:00 12.9 55 6.2 4.1 7 9 1027 0 14.5 22.9 31.5 82.0 69.7 237.7
27 07:50 12.4 54 5.9 3.3 7 9 1013.1 0 13.9 22.1 30.0 78.3 65.6 223.5
27 07:40 12.9 54 6.09 3.8 7 7 1013.1 0 14.3 22.2 30.5 79.7 67.5 230.2
27 07:30 12.7 54 6.01 3.6 7 11 1026.9 0 14.1 22.6 30.8 80.3 67.5 230.0
27 07:20 11.9 57 6.04 3.6 6 7 1013.1 0 14.2 22.4 30.7 80.2 67.8 230.9
27 07:10 11.7 56 5.86 3.2 0 0 1013.1 0 13.8 22.2 30.1 78.6 65.7 223.7
27 07:00 11.7 56 5.86 3.2 6 7 1026.7 0 13.8 22.7 30.7 79.8 66.5 226.3
27 06:50 10.9 58 5.77 2.9 0 0 1013.1 0 13.7 22.2 30.1 78.5 65.3 222.1
27 06:40 10.9 58 5.77 2.9 4 4 1013.1 0 13.7 22.2 30.1 78.5 65.3 222.1
27 06:30 10.3 60 5.75 2.9 2 4 1026.2 0 13.7 22.8 30.8 80.0 66.3 225.4
27 06:20 10.4 59 5.69 2.7 0 0 1013.1 0 13.5 22.2 30.0 78.2 64.7 220.0
27 06:10 10.5 58 5.63 2.6 2 2 1013.1 0 13.4 22.1 29.7 77.5 63.9 217.1
27 06:00 10.4 59 5.69 2.7 9 15 1025.8 0 13.5 22.7 30.5 79.3 65.5 222.4
27 05:50 10.4 59 5.69 2.7 6 7 1013.1 0 13.5 22.2 30.0 78.2 64.7 220.0
27 05:40 10.6 58 5.66 2.7 2 4 1013.1 0 13.4 22.1 29.8 77.7 64.2 218.1
27 05:30 10.4 59 5.69 2.7 6 9 1025.4 0 13.5 22.7 30.5 79.3 65.4 222.3
27 05:10 10.5 60 5.82 3 7 9 1013.1 0 13.8 22.4 30.4 79.4 66.2 225.3
27 04:40 10.5 60 5.82 3 6 6 1013.1 0 13.8 22.4 30.4 79.4 66.2 225.3
27 04:30 10.6 59 5.76 2.9 6 9 1024.7 0 13.7 22.7 30.6 79.7 66.1 224.7
27 04:20 10.7 60 5.89 3.2 9 9 1013.1 0 13.9 22.5 30.6 79.9 66.9 227.8
27 04:10 10.7 60 5.89 3.2 6 6 1013.1 0 13.9 22.5 30.6 79.9 66.9 227.8
27 04:00 10.7 60 5.89 3.3 7 11 1024.6 0 13.9 22.9 31.1 80.9 67.6 230.1
27 03:50 10.7 61 5.99 3.5 7 7 1013.1 0 14.1 22.6 31.0 80.9 68.2 232.2
27 03:40 10.5 63 6.11 3.7 6 6 1013.1 0 14.4 22.9 31.5 82.3 69.9 238.0
27 03:30 10.5 64 6.21 4 4 4 1024.6 0 14.6 23.4 32.4 84.4 71.8 244.8
27 03:20 10.5 63 6.11 3.7 4 4 1013.1 0 14.4 22.9 31.5 82.3 69.9 238.0
27 03:10 10.6 63 6.15 3.8 6 6 1013.1 0 14.5 22.9 31.6 82.6 70.3 239.5
27 03:00 10.7 62 6.09 3.7 9 13 1024.6 0 14.4 23.2 31.8 82.9 70.1 238.9
27 02:50 10.7 63 6.19 3.9 9 11 1013.1 0 14.6 22.9 31.8 82.9 70.7 241.0
27 02:40 10.8 62 6.13 3.8 9 9 1013.1 0 14.4 22.8 31.5 82.2 69.8 238.0
27 02:30 10.7 62 6.09 3.7 6 13 1024.5 0 14.4 23.2 31.8 82.9 70.1 238.9
27 02:20 10.7 61 5.99 3.5 7 9 1013.1 0 14.1 22.6 31.0 80.9 68.2 232.2
27 02:10 10.6 61 5.96 3.4 7 9 1013.1 0 14.1 22.6 30.9 80.7 67.9 231.2
27 02:00 10.8 60 5.93 3.4 9 15 1024.6 0 14.0 22.9 31.2 81.2 68.0 231.6
27 01:50 10.6 61 5.96 3.4 6 7 1013.1 0 14.1 22.6 30.9 80.7 67.9 231.2
27 01:40 10.6 61 5.96 3.4 4 6 1013.1 0 14.1 22.6 30.9 80.7 67.9 231.2
27 01:30 10.7 59 5.8 3 11 17 1024.8 0 13.7 22.8 30.7 80.0 66.5 226.2
27 01:20 10.7 66 6.48 4.6 7 9 1013.1 0 15.2 23.4 32.9 85.9 74.3 253.8
27 01:10 10.7 66 6.48 4.6 9 11 1013.1 0 15.2 23.4 32.9 85.9 74.3 253.8
27 01:00 10.7 65 6.39 4.4 9 13 1024.8 0 15.0 23.7 33.0 86.0 74.0 252.3
27 00:50 10.7 63 6.19 3.9 7 9 1013.1 0 14.6 22.9 31.8 82.9 70.7 241.0
27 00:40 10.7 63 6.19 4.1 11 13 1013.1 0 14.6 22.9 31.8 82.9 70.7 241.0
27 00:30 10.4 62 5.98 3.4 11 13 1024.8 0 14.1 23.1 31.5 82.2 69.0 235.0
27 00:20 10.5 62 6.01 3.5 13 15 1013.1 0 14.2 22.7 31.1 81.3 68.6 233.6
27 00:10 10.6 62 6.05 3.6 13 15 1013.1 0 14.3 22.7 31.3 81.6 69.0 235.1
27 00:00 10.4 65 6.27 4.1 9 11 1024.9 0 14.8 23.6 32.6 85.1 72.7 247.9
26 23:50 10.2 65 6.19 3.9 7 9 1013.1 0 14.6 23.1 31.9 83.4 71.1 242.5
26 23:40 10.2 68 6.47 4.5 11 11 1013.1 0 15.2 23.5 33.0 86.3 74.7 255.0
26 23:30 10.1 69 6.53 4.7 11 13 1025.1 0 15.3 24.1 33.8 88.2 76.4 260.6
26 23:20 10.1 68 6.43 4.6 13 17 1013.1 0 15.1 23.5 32.9 86.0 74.3 253.5
26 23:10 10.3 69 6.61 4.8 9 11 1013.1 0 15.5 23.7 33.5 87.7 76.4 260.9
26 23:00 10.3 68 6.51 4.7 13 17 1025.2 0 15.3 24.0 33.6 87.8 75.9 259.1
26 22:50 10.5 69 6.69 5 13 13 1013.1 0 15.7 23.8 33.8 88.3 77.2 263.9
26 22:40 10.5 68 6.6 4.8 11 17 1013.1 0 15.5 23.6 33.4 87.3 76.1 259.8
26 22:30 10.6 67 6.54 4.7 15 20 1025.2 0 15.3 23.9 33.6 87.7 76.0 259.4
26 22:20 10.8 66 6.52 4.7 17 19 1013.1 0 15.3 23.4 33.0 86.2 74.8 255.3
26 22:10 10.9 67 6.67 5 17 19 1013.1 0 15.6 23.6 33.5 87.6 76.6 261.6
26 22:00 10.9 68 6.77 5.2 17 22 1025.1 0 15.8 24.2 34.4 89.8 78.7 268.8
26 21:50 10.9 67 6.67 5 17 19 1013.1 0 15.6 23.6 33.5 87.6 76.6 261.6
26 21:40 11 66 6.61 4.9 19 20 1013.1 0 15.5 23.5 33.2 86.9 75.7 258.6
26 21:30 11 66 6.61 4.9 19 22 1025.1 0 15.5 23.9 33.7 88.0 76.5 261.3
26 21:20 11 67 6.71 5.1 17 20 1013.1 0 15.7 23.7 33.6 87.9 77.0 263.1
26 21:10 11 67 6.71 5.1 17 20 1013.1 0 15.7 23.7 33.6 87.9 77.0 263.1

Last Refresh: 27-Sep-2020 14:17:29

Most of the information presented on this site is sourced from the Bureau of Meteorology.  Copyright in all material sourced from the Bureau of Meteorology resides with the Commonwealth of Australia.